sensor_id;sensor_type;location;lat;lon;timestamp;P1;durP1;ratioP1;P2;durP2;ratioP2
59468;SDS011;45277;52.768;18.262;2022-09-03T00:00:40;6.03;;;3.97;;
59468;SDS011;45277;52.768;18.262;2022-09-03T00:02:40;6.50;;;3.92;;
59468;SDS011;45277;52.768;18.262;2022-09-03T00:06:56;5.13;;;3.78;;
59468;SDS011;45277;52.768;18.262;2022-09-03T00:12:25;6.63;;;3.80;;
59468;SDS011;45277;52.768;18.262;2022-09-03T00:14:09;5.80;;;4.10;;
59468;SDS011;45277;52.768;18.262;2022-09-03T00:15:49;6.35;;;4.18;;
59468;SDS011;45277;52.768;18.262;2022-09-03T00:17:29;8.68;;;4.82;;
59468;SDS011;45277;52.768;18.262;2022-09-03T00:19:21;5.72;;;4.18;;
59468;SDS011;45277;52.768;18.262;2022-09-03T00:21:08;5.75;;;4.38;;
59468;SDS011;45277;52.768;18.262;2022-09-03T00:23:02;11.52;;;4.10;;
59468;SDS011;45277;52.768;18.262;2022-09-03T00:24:42;6.10;;;3.85;;
59468;SDS011;45277;52.768;18.262;2022-09-03T00:26:17;5.40;;;3.92;;
59468;SDS011;45277;52.768;18.262;2022-09-03T00:27:56;7.88;;;4.38;;
59468;SDS011;45277;52.768;18.262;2022-09-03T00:29:40;5.18;;;3.70;;
59468;SDS011;45277;52.768;18.262;2022-09-03T00:31:35;7.00;;;3.78;;
59468;SDS011;45277;52.768;18.262;2022-09-03T00:33:20;7.28;;;3.88;;
59468;SDS011;45277;52.768;18.262;2022-09-03T00:34:59;8.25;;;3.70;;
59468;SDS011;45277;52.768;18.262;2022-09-03T00:36:41;6.22;;;3.65;;
59468;SDS011;45277;52.768;18.262;2022-09-03T00:38:18;6.53;;;4.18;;
59468;SDS011;45277;52.768;18.262;2022-09-03T00:39:53;4.88;;;3.60;;
59468;SDS011;45277;52.768;18.262;2022-09-03T00:43:09;6.43;;;3.53;;
59468;SDS011;45277;52.768;18.262;2022-09-03T00:45:02;5.05;;;3.90;;
59468;SDS011;45277;52.768;18.262;2022-09-03T00:48:59;5.53;;;4.05;;
59468;SDS011;45277;52.768;18.262;2022-09-03T00:52:59;9.45;;;3.60;;
59468;SDS011;45277;52.768;18.262;2022-09-03T00:54:47;15.40;;;4.30;;
59468;SDS011;45277;52.768;18.262;2022-09-03T00:56:30;6.00;;;3.67;;
59468;SDS011;45277;52.768;18.262;2022-09-03T01:00:05;7.70;;;3.90;;
59468;SDS011;45277;52.768;18.262;2022-09-03T01:01:48;4.75;;;3.50;;
59468;SDS011;45277;52.768;18.262;2022-09-03T01:03:40;7.28;;;3.75;;
59468;SDS011;45277;52.768;18.262;2022-09-03T01:05:31;5.47;;;3.55;;
59468;SDS011;45277;52.768;18.262;2022-09-03T01:17:03;5.28;;;4.13;;
59468;SDS011;45277;52.768;18.262;2022-09-03T01:18:57;5.40;;;4.30;;
59468;SDS011;45277;52.768;18.262;2022-09-03T01:24:35;7.40;;;4.32;;
59468;SDS011;45277;52.768;18.262;2022-09-03T01:26:38;7.47;;;4.22;;
59468;SDS011;45277;52.768;18.262;2022-09-03T01:30:29;6.57;;;4.00;;
59468;SDS011;45277;52.768;18.262;2022-09-03T01:32:06;7.43;;;4.10;;
59468;SDS011;45277;52.768;18.262;2022-09-03T01:33:49;8.65;;;4.30;;
59468;SDS011;45277;52.768;18.262;2022-09-03T01:35:37;5.82;;;3.83;;
59468;SDS011;45277;52.768;18.262;2022-09-03T01:39:57;6.07;;;3.75;;
59468;SDS011;45277;52.768;18.262;2022-09-03T01:43:52;4.95;;;3.65;;
59468;SDS011;45277;52.768;18.262;2022-09-03T01:49:18;5.65;;;3.50;;
59468;SDS011;45277;52.768;18.262;2022-09-03T01:51:05;6.68;;;3.65;;
59468;SDS011;45277;52.768;18.262;2022-09-03T01:53:09;4.68;;;3.50;;
59468;SDS011;45277;52.768;18.262;2022-09-03T01:54:58;5.65;;;3.60;;
59468;SDS011;45277;52.768;18.262;2022-09-03T02:00:17;4.55;;;3.33;;
59468;SDS011;45277;52.768;18.262;2022-09-03T02:01:52;3.88;;;3.22;;
59468;SDS011;45277;52.768;18.262;2022-09-03T02:03:39;3.78;;;2.97;;
59468;SDS011;45277;52.768;18.262;2022-09-03T02:05:16;3.03;;;2.72;;
59468;SDS011;45277;52.768;18.262;2022-09-03T02:06:52;4.40;;;3.35;;
59468;SDS011;45277;52.768;18.262;2022-09-03T02:08:29;4.57;;;3.40;;
59468;SDS011;45277;52.768;18.262;2022-09-03T02:10:02;4.53;;;3.33;;
59468;SDS011;45277;52.768;18.262;2022-09-03T02:11:37;6.15;;;3.90;;
59468;SDS011;45277;52.768;18.262;2022-09-03T02:13:18;6.13;;;3.33;;
59468;SDS011;45277;52.768;18.262;2022-09-03T02:14:55;5.70;;;3.55;;
59468;SDS011;45277;52.768;18.262;2022-09-03T02:16:29;5.60;;;3.25;;
59468;SDS011;45277;52.768;18.262;2022-09-03T02:18:04;4.18;;;3.40;;
59468;SDS011;45277;52.768;18.262;2022-09-03T02:19:38;4.65;;;3.60;;
59468;SDS011;45277;52.768;18.262;2022-09-03T02:21:10;4.97;;;3.38;;
59468;SDS011;45277;52.768;18.262;2022-09-03T02:22:47;5.68;;;3.60;;
59468;SDS011;45277;52.768;18.262;2022-09-03T02:24:20;5.80;;;3.33;;
59468;SDS011;45277;52.768;18.262;2022-09-03T02:25:55;4.22;;;3.40;;
59468;SDS011;45277;52.768;18.262;2022-09-03T02:27:30;5.13;;;3.33;;
59468;SDS011;45277;52.768;18.262;2022-09-03T02:29:03;6.80;;;3.40;;
59468;SDS011;45277;52.768;18.262;2022-09-03T02:30:35;8.23;;;4.20;;
59468;SDS011;45277;52.768;18.262;2022-09-03T02:32:13;4.00;;;3.53;;
59468;SDS011;45277;52.768;18.262;2022-09-03T02:35:33;4.93;;;3.25;;
59468;SDS011;45277;52.768;18.262;2022-09-03T02:37:15;5.82;;;3.58;;
59468;SDS011;45277;52.768;18.262;2022-09-03T02:38:49;5.88;;;3.40;;
59468;SDS011;45277;52.768;18.262;2022-09-03T02:40:22;3.90;;;3.15;;
59468;SDS011;45277;52.768;18.262;2022-09-03T02:41:54;4.40;;;3.45;;
59468;SDS011;45277;52.768;18.262;2022-09-03T02:45:40;4.55;;;3.50;;
59468;SDS011;45277;52.768;18.262;2022-09-03T02:47:19;6.28;;;3.38;;
59468;SDS011;45277;52.768;18.262;2022-09-03T02:48:52;7.72;;;3.42;;
59468;SDS011;45277;52.768;18.262;2022-09-03T02:50:25;6.53;;;3.58;;
59468;SDS011;45277;52.768;18.262;2022-09-03T02:52:07;4.88;;;3.40;;
59468;SDS011;45277;52.768;18.262;2022-09-03T02:53:42;6.85;;;3.30;;
59468;SDS011;45277;52.768;18.262;2022-09-03T02:55:14;3.72;;;3.05;;
59468;SDS011;45277;52.768;18.262;2022-09-03T02:56:46;5.40;;;3.50;;
59468;SDS011;45277;52.768;18.262;2022-09-03T02:58:19;5.32;;;3.45;;
59468;SDS011;45277;52.768;18.262;2022-09-03T02:59:52;3.65;;;3.33;;
59468;SDS011;45277;52.768;18.262;2022-09-03T03:01:26;3.78;;;3.25;;
59468;SDS011;45277;52.768;18.262;2022-09-03T03:02:58;4.32;;;3.30;;
59468;SDS011;45277;52.768;18.262;2022-09-03T03:04:31;4.85;;;3.35;;
59468;SDS011;45277;52.768;18.262;2022-09-03T03:06:03;6.07;;;3.10;;
59468;SDS011;45277;52.768;18.262;2022-09-03T03:07:49;5.95;;;3.00;;
59468;SDS011;45277;52.768;18.262;2022-09-03T03:09:21;4.88;;;3.17;;
59468;SDS011;45277;52.768;18.262;2022-09-03T03:10:54;3.70;;;2.97;;
59468;SDS011;45277;52.768;18.262;2022-09-03T03:12:29;4.25;;;3.50;;
59468;SDS011;45277;52.768;18.262;2022-09-03T03:15:36;4.25;;;3.40;;
59468;SDS011;45277;52.768;18.262;2022-09-03T03:17:10;4.20;;;3.13;;
59468;SDS011;45277;52.768;18.262;2022-09-03T03:18:49;4.43;;;3.55;;
59468;SDS011;45277;52.768;18.262;2022-09-03T03:21:59;3.50;;;3.20;;
59468;SDS011;45277;52.768;18.262;2022-09-03T03:23:32;6.45;;;3.22;;
59468;SDS011;45277;52.768;18.262;2022-09-03T03:25:04;4.72;;;3.80;;
59468;SDS011;45277;52.768;18.262;2022-09-03T03:26:36;4.28;;;3.50;;
59468;SDS011;45277;52.768;18.262;2022-09-03T03:28:08;3.50;;;3.17;;
59468;SDS011;45277;52.768;18.262;2022-09-03T03:29:41;6.43;;;3.65;;
59468;SDS011;45277;52.768;18.262;2022-09-03T03:31:13;4.28;;;3.15;;
59468;SDS011;45277;52.768;18.262;2022-09-03T03:32:46;4.60;;;3.72;;
59468;SDS011;45277;52.768;18.262;2022-09-03T03:34:18;5.72;;;3.22;;
59468;SDS011;45277;52.768;18.262;2022-09-03T03:35:50;6.28;;;3.40;;
59468;SDS011;45277;52.768;18.262;2022-09-03T03:37:21;3.65;;;3.22;;
59468;SDS011;45277;52.768;18.262;2022-09-03T03:38:54;6.28;;;3.00;;
59468;SDS011;45277;52.768;18.262;2022-09-03T03:40:27;5.20;;;3.10;;
59468;SDS011;45277;52.768;18.262;2022-09-03T03:41:59;3.88;;;3.05;;
59468;SDS011;45277;52.768;18.262;2022-09-03T03:43:32;7.07;;;3.10;;
59468;SDS011;45277;52.768;18.262;2022-09-03T03:45:04;9.10;;;3.50;;
59468;SDS011;45277;52.768;18.262;2022-09-03T03:46:38;5.15;;;3.20;;
59468;SDS011;45277;52.768;18.262;2022-09-03T03:48:11;4.35;;;3.28;;
59468;SDS011;45277;52.768;18.262;2022-09-03T03:49:44;4.18;;;3.30;;
59468;SDS011;45277;52.768;18.262;2022-09-03T03:51:16;4.65;;;3.67;;
59468;SDS011;45277;52.768;18.262;2022-09-03T03:52:48;4.68;;;3.60;;
59468;SDS011;45277;52.768;18.262;2022-09-03T03:54:22;5.30;;;3.63;;
59468;SDS011;45277;52.768;18.262;2022-09-03T03:56:00;5.88;;;3.50;;
59468;SDS011;45277;52.768;18.262;2022-09-03T03:57:33;3.92;;;3.20;;
59468;SDS011;45277;52.768;18.262;2022-09-03T03:59:06;4.53;;;3.03;;
59468;SDS011;45277;52.768;18.262;2022-09-03T04:00:38;5.60;;;3.50;;
59468;SDS011;45277;52.768;18.262;2022-09-03T04:02:10;3.50;;;3.20;;
59468;SDS011;45277;52.768;18.262;2022-09-03T04:03:43;4.38;;;3.00;;
59468;SDS011;45277;52.768;18.262;2022-09-03T04:05:16;5.30;;;3.00;;
59468;SDS011;45277;52.768;18.262;2022-09-03T04:06:57;6.50;;;3.45;;
59468;SDS011;45277;52.768;18.262;2022-09-03T04:08:30;6.93;;;2.80;;
59468;SDS011;45277;52.768;18.262;2022-09-03T04:10:08;3.28;;;2.70;;
59468;SDS011;45277;52.768;18.262;2022-09-03T04:11:40;5.40;;;2.95;;
59468;SDS011;45277;52.768;18.262;2022-09-03T04:13:11;3.13;;;2.72;;
59468;SDS011;45277;52.768;18.262;2022-09-03T04:14:43;3.35;;;2.65;;
59468;SDS011;45277;52.768;18.262;2022-09-03T04:16:16;5.82;;;2.85;;
59468;SDS011;45277;52.768;18.262;2022-09-03T04:17:56;2.85;;;2.63;;
59468;SDS011;45277;52.768;18.262;2022-09-03T04:19:28;4.20;;;2.70;;
59468;SDS011;45277;52.768;18.262;2022-09-03T04:21:06;4.90;;;2.80;;
59468;SDS011;45277;52.768;18.262;2022-09-03T04:22:41;5.35;;;2.75;;
59468;SDS011;45277;52.768;18.262;2022-09-03T04:24:14;6.20;;;3.10;;
59468;SDS011;45277;52.768;18.262;2022-09-03T04:25:50;3.78;;;2.92;;
59468;SDS011;45277;52.768;18.262;2022-09-03T04:27:25;4.20;;;3.28;;
59468;SDS011;45277;52.768;18.262;2022-09-03T04:28:57;5.35;;;3.53;;
59468;SDS011;45277;52.768;18.262;2022-09-03T04:30:31;5.80;;;4.20;;
59468;SDS011;45277;52.768;18.262;2022-09-03T04:32:03;7.72;;;6.13;;
59468;SDS011;45277;52.768;18.262;2022-09-03T04:34:01;6.05;;;5.45;;
59468;SDS011;45277;52.768;18.262;2022-09-03T04:35:34;6.75;;;4.38;;
59468;SDS011;45277;52.768;18.262;2022-09-03T04:37:07;5.05;;;4.10;;
59468;SDS011;45277;52.768;18.262;2022-09-03T04:38:40;5.15;;;3.50;;
59468;SDS011;45277;52.768;18.262;2022-09-03T04:40:13;4.40;;;3.25;;
59468;SDS011;45277;52.768;18.262;2022-09-03T04:41:46;4.25;;;3.60;;
59468;SDS011;45277;52.768;18.262;2022-09-03T04:43:18;3.22;;;2.92;;
59468;SDS011;45277;52.768;18.262;2022-09-03T04:44:51;5.47;;;2.90;;
59468;SDS011;45277;52.768;18.262;2022-09-03T04:46:24;5.68;;;2.83;;
59468;SDS011;45277;52.768;18.262;2022-09-03T04:49:33;3.28;;;2.72;;
59468;SDS011;45277;52.768;18.262;2022-09-03T04:51:07;5.03;;;3.00;;
59468;SDS011;45277;52.768;18.262;2022-09-03T04:52:39;3.10;;;2.63;;
59468;SDS011;45277;52.768;18.262;2022-09-03T04:54:19;3.42;;;2.70;;
59468;SDS011;45277;52.768;18.262;2022-09-03T04:55:51;4.13;;;2.80;;
59468;SDS011;45277;52.768;18.262;2022-09-03T04:57:24;3.28;;;2.60;;
59468;SDS011;45277;52.768;18.262;2022-09-03T04:58:57;4.05;;;2.35;;
59468;SDS011;45277;52.768;18.262;2022-09-03T05:00:37;3.42;;;2.30;;
59468;SDS011;45277;52.768;18.262;2022-09-03T05:02:10;3.72;;;2.55;;
59468;SDS011;45277;52.768;18.262;2022-09-03T05:03:43;2.47;;;2.28;;
59468;SDS011;45277;52.768;18.262;2022-09-03T05:05:17;2.80;;;2.38;;
59468;SDS011;45277;52.768;18.262;2022-09-03T05:06:51;3.35;;;2.20;;
59468;SDS011;45277;52.768;18.262;2022-09-03T05:08:23;5.43;;;2.33;;
59468;SDS011;45277;52.768;18.262;2022-09-03T05:09:56;4.63;;;2.33;;
59468;SDS011;45277;52.768;18.262;2022-09-03T05:11:29;3.25;;;2.15;;
59468;SDS011;45277;52.768;18.262;2022-09-03T05:13:02;3.92;;;2.53;;
59468;SDS011;45277;52.768;18.262;2022-09-03T05:14:35;4.47;;;2.40;;
59468;SDS011;45277;52.768;18.262;2022-09-03T05:16:08;3.83;;;2.60;;
59468;SDS011;45277;52.768;18.262;2022-09-03T05:17:41;3.92;;;2.72;;
59468;SDS011;45277;52.768;18.262;2022-09-03T05:19:19;4.78;;;2.50;;
59468;SDS011;45277;52.768;18.262;2022-09-03T05:20:56;2.95;;;2.50;;
59468;SDS011;45277;52.768;18.262;2022-09-03T05:22:38;2.47;;;2.20;;
59468;SDS011;45277;52.768;18.262;2022-09-03T05:24:11;5.35;;;2.30;;
59468;SDS011;45277;52.768;18.262;2022-09-03T05:25:53;4.40;;;2.75;;
59468;SDS011;45277;52.768;18.262;2022-09-03T05:27:30;3.58;;;2.50;;
59468;SDS011;45277;52.768;18.262;2022-09-03T05:29:02;2.60;;;2.40;;
59468;SDS011;45277;52.768;18.262;2022-09-03T05:30:37;4.55;;;2.38;;
59468;SDS011;45277;52.768;18.262;2022-09-03T05:32:10;2.85;;;2.53;;
59468;SDS011;45277;52.768;18.262;2022-09-03T05:33:45;3.15;;;2.40;;
59468;SDS011;45277;52.768;18.262;2022-09-03T05:35:18;2.60;;;2.00;;
59468;SDS011;45277;52.768;18.262;2022-09-03T05:36:51;4.22;;;2.13;;
59468;SDS011;45277;52.768;18.262;2022-09-03T05:38:23;2.50;;;2.13;;
59468;SDS011;45277;52.768;18.262;2022-09-03T05:39:56;2.20;;;1.98;;
59468;SDS011;45277;52.768;18.262;2022-09-03T05:41:29;4.13;;;2.00;;
59468;SDS011;45277;52.768;18.262;2022-09-03T05:43:04;2.38;;;2.00;;
59468;SDS011;45277;52.768;18.262;2022-09-03T05:44:35;3.42;;;1.88;;
59468;SDS011;45277;52.768;18.262;2022-09-03T05:46:08;4.88;;;2.10;;
59468;SDS011;45277;52.768;18.262;2022-09-03T05:47:45;2.00;;;1.80;;
59468;SDS011;45277;52.768;18.262;2022-09-03T05:49:16;1.75;;;1.65;;
59468;SDS011;45277;52.768;18.262;2022-09-03T05:50:48;3.88;;;2.10;;
59468;SDS011;45277;52.768;18.262;2022-09-03T05:52:20;3.10;;;1.70;;
59468;SDS011;45277;52.768;18.262;2022-09-03T05:53:54;1.70;;;1.60;;
59468;SDS011;45277;52.768;18.262;2022-09-03T05:55:27;2.25;;;1.42;;
59468;SDS011;45277;52.768;18.262;2022-09-03T05:56:59;2.72;;;1.42;;
59468;SDS011;45277;52.768;18.262;2022-09-03T05:58:32;4.30;;;1.38;;
59468;SDS011;45277;52.768;18.262;2022-09-03T06:00:05;1.35;;;1.25;;
59468;SDS011;45277;52.768;18.262;2022-09-03T06:01:42;1.52;;;1.42;;
59468;SDS011;45277;52.768;18.262;2022-09-03T06:03:17;1.40;;;1.30;;
59468;SDS011;45277;52.768;18.262;2022-09-03T06:04:49;3.00;;;1.30;;
59468;SDS011;45277;52.768;18.262;2022-09-03T06:06:21;3.45;;;1.30;;
59468;SDS011;45277;52.768;18.262;2022-09-03T06:07:56;1.83;;;1.23;;
59468;SDS011;45277;52.768;18.262;2022-09-03T06:09:28;3.58;;;1.23;;
59468;SDS011;45277;52.768;18.262;2022-09-03T06:11:00;1.20;;;1.10;;
59468;SDS011;45277;52.768;18.262;2022-09-03T06:12:50;6.93;;;1.10;;
59468;SDS011;45277;52.768;18.262;2022-09-03T06:14:21;1.25;;;1.20;;
59468;SDS011;45277;52.768;18.262;2022-09-03T06:15:56;3.80;;;1.58;;
59468;SDS011;45277;52.768;18.262;2022-09-03T06:17:31;2.55;;;1.67;;
59468;SDS011;45277;52.768;18.262;2022-09-03T06:19:03;2.35;;;1.55;;
59468;SDS011;45277;52.768;18.262;2022-09-03T06:20:39;3.05;;;1.27;;
59468;SDS011;45277;52.768;18.262;2022-09-03T06:22:17;3.50;;;1.85;;
59468;SDS011;45277;52.768;18.262;2022-09-03T06:23:51;2.65;;;2.03;;
59468;SDS011;45277;52.768;18.262;2022-09-03T06:25:30;2.78;;;1.95;;
59468;SDS011;45277;52.768;18.262;2022-09-03T06:27:02;2.65;;;1.80;;
59468;SDS011;45277;52.768;18.262;2022-09-03T06:30:12;3.22;;;1.90;;
59468;SDS011;45277;52.768;18.262;2022-09-03T06:31:45;4.20;;;1.90;;
59468;SDS011;45277;52.768;18.262;2022-09-03T06:33:18;1.73;;;1.63;;
59468;SDS011;45277;52.768;18.262;2022-09-03T06:34:50;3.20;;;1.60;;
59468;SDS011;45277;52.768;18.262;2022-09-03T06:36:28;1.48;;;1.30;;
59468;SDS011;45277;52.768;18.262;2022-09-03T06:38:01;1.50;;;1.40;;
59468;SDS011;45277;52.768;18.262;2022-09-03T06:39:32;2.28;;;1.70;;
59468;SDS011;45277;52.768;18.262;2022-09-03T06:41:08;1.65;;;1.55;;
59468;SDS011;45277;52.768;18.262;2022-09-03T06:42:41;2.53;;;1.48;;
59468;SDS011;45277;52.768;18.262;2022-09-03T06:44:14;1.20;;;1.20;;
59468;SDS011;45277;52.768;18.262;2022-09-03T06:46:02;3.78;;;1.85;;
59468;SDS011;45277;52.768;18.262;2022-09-03T06:47:35;5.07;;;1.63;;
59468;SDS011;45277;52.768;18.262;2022-09-03T06:49:14;1.67;;;1.58;;
59468;SDS011;45277;52.768;18.262;2022-09-03T06:50:56;4.20;;;1.45;;
59468;SDS011;45277;52.768;18.262;2022-09-03T06:52:32;4.95;;;1.80;;
59468;SDS011;45277;52.768;18.262;2022-09-03T06:54:06;2.65;;;1.50;;
59468;SDS011;45277;52.768;18.262;2022-09-03T06:55:41;2.42;;;1.60;;
59468;SDS011;45277;52.768;18.262;2022-09-03T06:57:13;1.63;;;1.40;;
59468;SDS011;45277;52.768;18.262;2022-09-03T06:58:45;3.45;;;1.58;;
59468;SDS011;45277;52.768;18.262;2022-09-03T07:00:20;1.60;;;1.50;;
59468;SDS011;45277;52.768;18.262;2022-09-03T07:01:53;2.35;;;1.40;;
59468;SDS011;45277;52.768;18.262;2022-09-03T07:03:26;2.13;;;1.70;;
59468;SDS011;45277;52.768;18.262;2022-09-03T07:04:57;1.80;;;1.70;;
59468;SDS011;45277;52.768;18.262;2022-09-03T07:06:32;2.80;;;1.65;;
59468;SDS011;45277;52.768;18.262;2022-09-03T07:08:12;2.35;;;1.63;;
59468;SDS011;45277;52.768;18.262;2022-09-03T07:09:45;4.13;;;1.50;;
59468;SDS011;45277;52.768;18.262;2022-09-03T07:11:30;5.70;;;1.75;;
59468;SDS011;45277;52.768;18.262;2022-09-03T07:13:04;1.80;;;1.55;;
59468;SDS011;45277;52.768;18.262;2022-09-03T07:14:41;1.55;;;1.45;;
59468;SDS011;45277;52.768;18.262;2022-09-03T07:16:19;1.52;;;1.38;;
59468;SDS011;45277;52.768;18.262;2022-09-03T07:17:59;1.93;;;1.30;;
59468;SDS011;45277;52.768;18.262;2022-09-03T07:19:38;5.10;;;1.65;;
59468;SDS011;45277;52.768;18.262;2022-09-03T07:21:16;1.20;;;1.20;;
59468;SDS011;45277;52.768;18.262;2022-09-03T07:22:49;6.57;;;1.60;;
59468;SDS011;45277;52.768;18.262;2022-09-03T07:24:24;1.63;;;1.50;;
59468;SDS011;45277;52.768;18.262;2022-09-03T07:26:02;1.95;;;1.60;;
59468;SDS011;45277;52.768;18.262;2022-09-03T07:27:47;3.63;;;1.50;;
59468;SDS011;45277;52.768;18.262;2022-09-03T07:29:21;1.45;;;1.35;;
59468;SDS011;45277;52.768;18.262;2022-09-03T07:30:54;3.80;;;1.60;;
59468;SDS011;45277;52.768;18.262;2022-09-03T07:32:35;5.05;;;1.70;;
59468;SDS011;45277;52.768;18.262;2022-09-03T07:34:12;1.38;;;1.27;;
59468;SDS011;45277;52.768;18.262;2022-09-03T07:35:46;1.50;;;1.30;;
59468;SDS011;45277;52.768;18.262;2022-09-03T07:37:18;3.15;;;1.42;;
59468;SDS011;45277;52.768;18.262;2022-09-03T07:40:37;2.47;;;2.10;;
59468;SDS011;45277;52.768;18.262;2022-09-03T07:42:09;2.90;;;1.80;;
59468;SDS011;45277;52.768;18.262;2022-09-03T07:43:41;1.50;;;1.40;;
59468;SDS011;45277;52.768;18.262;2022-09-03T07:45:22;2.70;;;2.03;;
59468;SDS011;45277;52.768;18.262;2022-09-03T07:46:54;2.28;;;1.40;;
59468;SDS011;45277;52.768;18.262;2022-09-03T07:48:26;1.73;;;1.63;;
59468;SDS011;45277;52.768;18.262;2022-09-03T07:50:02;4.88;;;1.55;;
59468;SDS011;45277;52.768;18.262;2022-09-03T07:51:35;1.83;;;1.40;;
59468;SDS011;45277;52.768;18.262;2022-09-03T07:53:15;3.15;;;1.67;;
59468;SDS011;45277;52.768;18.262;2022-09-03T07:54:59;3.08;;;1.80;;
59468;SDS011;45277;52.768;18.262;2022-09-03T07:56:49;1.65;;;1.20;;
59468;SDS011;45277;52.768;18.262;2022-09-03T07:58:23;1.35;;;1.20;;
59468;SDS011;45277;52.768;18.262;2022-09-03T07:59:58;4.78;;;1.30;;
59468;SDS011;45277;52.768;18.262;2022-09-03T08:01:34;1.90;;;1.20;;
59468;SDS011;45277;52.768;18.262;2022-09-03T08:05:14;2.80;;;1.10;;
59468;SDS011;45277;52.768;18.262;2022-09-03T08:06:52;2.03;;;1.27;;
59468;SDS011;45277;52.768;18.262;2022-09-03T08:08:33;2.47;;;1.20;;
59468;SDS011;45277;52.768;18.262;2022-09-03T08:11:48;1.90;;;1.80;;
59468;SDS011;45277;52.768;18.262;2022-09-03T08:15:01;1.35;;;1.25;;
59468;SDS011;45277;52.768;18.262;2022-09-03T08:16:41;1.42;;;1.33;;
59468;SDS011;45277;52.768;18.262;2022-09-03T08:18:19;2.72;;;1.40;;
59468;SDS011;45277;52.768;18.262;2022-09-03T08:20:02;4.00;;;1.40;;
59468;SDS011;45277;52.768;18.262;2022-09-03T08:21:41;2.38;;;1.30;;
59468;SDS011;45277;52.768;18.262;2022-09-03T08:23:13;2.83;;;1.20;;
59468;SDS011;45277;52.768;18.262;2022-09-03T08:24:46;2.10;;;1.10;;
59468;SDS011;45277;52.768;18.262;2022-09-03T08:26:20;4.70;;;1.30;;
59468;SDS011;45277;52.768;18.262;2022-09-03T08:27:57;1.65;;;1.30;;
59468;SDS011;45277;52.768;18.262;2022-09-03T08:29:29;4.18;;;1.33;;
59468;SDS011;45277;52.768;18.262;2022-09-03T08:32:44;1.60;;;1.20;;
59468;SDS011;45277;52.768;18.262;2022-09-03T08:34:20;2.55;;;1.40;;
59468;SDS011;45277;52.768;18.262;2022-09-03T08:35:54;3.25;;;1.40;;
59468;SDS011;45277;52.768;18.262;2022-09-03T08:37:28;1.83;;;1.30;;
59468;SDS011;45277;52.768;18.262;2022-09-03T08:39:11;2.00;;;1.15;;
59468;SDS011;45277;52.768;18.262;2022-09-03T08:43:19;3.33;;;1.00;;
59468;SDS011;45277;52.768;18.262;2022-09-03T08:44:57;2.28;;;1.40;;
59468;SDS011;45277;52.768;18.262;2022-09-03T09:24:10;3.50;;;1.52;;
59468;SDS011;45277;52.768;18.262;2022-09-03T11:06:10;5.43;;;1.25;;
59468;SDS011;45277;52.768;18.262;2022-09-03T11:10:15;1.63;;;1.00;;
59468;SDS011;45277;52.768;18.262;2022-09-03T11:12:06;1.65;;;1.00;;
59468;SDS011;45277;52.768;18.262;2022-09-03T11:20:51;2.78;;;1.20;;
59468;SDS011;45277;52.768;18.262;2022-09-03T11:24:25;6.90;;;1.20;;
59468;SDS011;45277;52.768;18.262;2022-09-03T11:26:18;1.40;;;1.30;;
59468;SDS011;45277;52.768;18.262;2022-09-03T11:29:55;2.22;;;1.27;;
59468;SDS011;45277;52.768;18.262;2022-09-03T11:33:23;1.77;;;1.30;;
59468;SDS011;45277;52.768;18.262;2022-09-03T11:34:58;1.40;;;1.30;;
59468;SDS011;45277;52.768;18.262;2022-09-03T11:36:35;4.05;;;1.60;;
59468;SDS011;45277;52.768;18.262;2022-09-03T11:47:41;10.65;;;1.45;;
59468;SDS011;45277;52.768;18.262;2022-09-03T11:49:31;2.15;;;1.30;;
59468;SDS011;45277;52.768;18.262;2022-09-03T12:02:06;6.32;;;1.40;;
59468;SDS011;45277;52.768;18.262;2022-09-03T12:03:57;3.63;;;1.30;;
59468;SDS011;45277;52.768;18.262;2022-09-03T12:10:11;3.67;;;1.30;;
59468;SDS011;45277;52.768;18.262;2022-09-03T12:22:41;3.67;;;1.45;;
59468;SDS011;45277;52.768;18.262;2022-09-03T12:27:52;2.03;;;1.40;;
59468;SDS011;45277;52.768;18.262;2022-09-03T12:29:33;2.58;;;1.10;;
59468;SDS011;45277;52.768;18.262;2022-09-03T16:23:48;1.65;;;1.05;;
59468;SDS011;45277;52.768;18.262;2022-09-03T16:27:34;1.30;;;1.15;;
59468;SDS011;45277;52.768;18.262;2022-09-03T16:29:17;4.43;;;1.40;;
59468;SDS011;45277;52.768;18.262;2022-09-03T16:45:18;6.20;;;1.50;;
59468;SDS011;45277;52.768;18.262;2022-09-03T16:49:49;1.48;;;1.38;;
59468;SDS011;45277;52.768;18.262;2022-09-03T16:59:20;6.15;;;1.60;;
59468;SDS011;45277;52.768;18.262;2022-09-03T17:06:55;2.10;;;1.50;;
59468;SDS011;45277;52.768;18.262;2022-09-03T17:12:27;9.23;;;1.60;;
59468;SDS011;45277;52.768;18.262;2022-09-03T17:14:16;3.65;;;1.95;;
59468;SDS011;45277;52.768;18.262;2022-09-03T17:18:15;3.15;;;1.33;;
59468;SDS011;45277;52.768;18.262;2022-09-03T17:20:04;2.28;;;1.30;;
59468;SDS011;45277;52.768;18.262;2022-09-03T17:24:02;1.70;;;1.48;;
59468;SDS011;45277;52.768;18.262;2022-09-03T17:43:40;2.92;;;1.70;;
59468;SDS011;45277;52.768;18.262;2022-09-03T17:47:26;4.55;;;1.90;;
59468;SDS011;45277;52.768;18.262;2022-09-03T17:49:13;5.55;;;2.45;;
59468;SDS011;45277;52.768;18.262;2022-09-03T17:50:58;7.65;;;1.95;;
59468;SDS011;45277;52.768;18.262;2022-09-03T17:54:14;4.78;;;1.88;;
59468;SDS011;45277;52.768;18.262;2022-09-03T17:55:59;2.75;;;1.60;;
59468;SDS011;45277;52.768;18.262;2022-09-03T17:57:57;4.85;;;2.05;;
59468;SDS011;45277;52.768;18.262;2022-09-03T17:59:42;2.58;;;1.80;;
59468;SDS011;45277;52.768;18.262;2022-09-03T18:01:28;2.22;;;1.50;;
59468;SDS011;45277;52.768;18.262;2022-09-03T18:06:59;4.00;;;1.95;;
59468;SDS011;45277;52.768;18.262;2022-09-03T18:10:29;3.78;;;1.85;;
59468;SDS011;45277;52.768;18.262;2022-09-03T18:12:08;10.10;;;1.67;;
59468;SDS011;45277;52.768;18.262;2022-09-03T18:17:50;1.83;;;1.73;;
59468;SDS011;45277;52.768;18.262;2022-09-03T18:21:35;2.97;;;1.65;;
59468;SDS011;45277;52.768;18.262;2022-09-03T18:23:49;1.65;;;1.52;;
59468;SDS011;45277;52.768;18.262;2022-09-03T18:25:44;3.53;;;1.75;;
59468;SDS011;45277;52.768;18.262;2022-09-03T18:27:39;3.45;;;1.90;;
59468;SDS011;45277;52.768;18.262;2022-09-03T18:31:38;4.47;;;1.98;;
59468;SDS011;45277;52.768;18.262;2022-09-03T18:33:30;2.10;;;1.90;;
59468;SDS011;45277;52.768;18.262;2022-09-03T18:35:33;5.00;;;2.30;;
59468;SDS011;45277;52.768;18.262;2022-09-03T18:37:25;2.38;;;1.70;;
59468;SDS011;45277;52.768;18.262;2022-09-03T18:39:31;3.35;;;1.80;;
59468;SDS011;45277;52.768;18.262;2022-09-03T18:41:27;2.17;;;1.80;;
59468;SDS011;45277;52.768;18.262;2022-09-03T18:43:38;2.35;;;1.55;;
59468;SDS011;45277;52.768;18.262;2022-09-03T18:45:45;2.83;;;1.98;;
59468;SDS011;45277;52.768;18.262;2022-09-03T18:54:34;2.05;;;1.70;;
59468;SDS011;45277;52.768;18.262;2022-09-03T18:56:48;3.38;;;1.95;;
59468;SDS011;45277;52.768;18.262;2022-09-03T19:01:14;3.75;;;2.35;;
59468;SDS011;45277;52.768;18.262;2022-09-03T19:08:34;2.00;;;1.73;;
59468;SDS011;45277;52.768;18.262;2022-09-03T19:15:56;4.57;;;1.80;;
59468;SDS011;45277;52.768;18.262;2022-09-03T19:26:04;5.50;;;1.80;;
59468;SDS011;45277;52.768;18.262;2022-09-03T19:28:20;2.08;;;1.88;;
59468;SDS011;45277;52.768;18.262;2022-09-03T19:32:42;3.78;;;1.60;;
59468;SDS011;45277;52.768;18.262;2022-09-03T19:36:53;3.45;;;1.50;;
59468;SDS011;45277;52.768;18.262;2022-09-03T19:39:28;2.17;;;1.90;;
59468;SDS011;45277;52.768;18.262;2022-09-03T19:42:50;2.10;;;1.60;;
59468;SDS011;45277;52.768;18.262;2022-09-03T19:44:31;3.47;;;1.70;;
59468;SDS011;45277;52.768;18.262;2022-09-03T19:53:21;2.08;;;1.70;;